sensor_id;sensor_type;location;lat;lon;timestamp;temperature;humidity
38090;DHT22;23904;52.322;10.232;2023-11-21T00:00:00;8.30;99.90
38090;DHT22;23904;52.322;10.232;2023-11-21T00:02:26;8.30;99.90
38090;DHT22;23904;52.322;10.232;2023-11-21T00:04:55;8.30;99.90
38090;DHT22;23904;52.322;10.232;2023-11-21T00:07:20;8.30;99.90
38090;DHT22;23904;52.322;10.232;2023-11-21T00:09:47;8.30;99.90
38090;DHT22;23904;52.322;10.232;2023-11-21T00:12:13;8.30;99.90
38090;DHT22;23904;52.322;10.232;2023-11-21T00:14:39;8.20;99.90
38090;DHT22;23904;52.322;10.232;2023-11-21T00:17:05;8.20;99.90
38090;DHT22;23904;52.322;10.232;2023-11-21T00:19:31;8.20;99.90
38090;DHT22;23904;52.322;10.232;2023-11-21T00:21:58;8.20;99.90
38090;DHT22;23904;52.322;10.232;2023-11-21T00:24:24;8.20;99.90
38090;DHT22;23904;52.322;10.232;2023-11-21T00:26:51;8.20;99.90
38090;DHT22;23904;52.322;10.232;2023-11-21T00:29:16;8.20;99.90
38090;DHT22;23904;52.322;10.232;2023-11-21T00:31:44;8.20;99.90
38090;DHT22;23904;52.322;10.232;2023-11-21T00:34:11;8.20;99.90
38090;DHT22;23904;52.322;10.232;2023-11-21T00:36:37;8.20;99.90
38090;DHT22;23904;52.322;10.232;2023-11-21T00:39:03;8.20;99.90
38090;DHT22;23904;52.322;10.232;2023-11-21T00:41:31;8.20;99.90
38090;DHT22;23904;52.322;10.232;2023-11-21T00:43:57;8.20;99.90
38090;DHT22;23904;52.322;10.232;2023-11-21T00:46:22;8.20;99.90
38090;DHT22;23904;52.322;10.232;2023-11-21T00:48:49;8.20;99.90
38090;DHT22;23904;52.322;10.232;2023-11-21T00:51:15;8.20;99.90
38090;DHT22;23904;52.322;10.232;2023-11-21T00:53:40;8.20;99.90
38090;DHT22;23904;52.322;10.232;2023-11-21T00:56:06;8.20;99.90
38090;DHT22;23904;52.322;10.232;2023-11-21T00:58:33;8.20;99.90
38090;DHT22;23904;52.322;10.232;2023-11-21T01:00:59;8.20;99.90
38090;DHT22;23904;52.322;10.232;2023-11-21T01:03:25;8.20;99.90
38090;DHT22;23904;52.322;10.232;2023-11-21T01:05:50;8.20;99.90
38090;DHT22;23904;52.322;10.232;2023-11-21T01:08:16;8.20;99.90
38090;DHT22;23904;52.322;10.232;2023-11-21T01:10:41;8.20;99.90
38090;DHT22;23904;52.322;10.232;2023-11-21T01:13:07;8.20;99.90
38090;DHT22;23904;52.322;10.232;2023-11-21T01:15:33;8.20;99.90
38090;DHT22;23904;52.322;10.232;2023-11-21T01:17:59;8.20;99.90
38090;DHT22;23904;52.322;10.232;2023-11-21T01:20:25;8.20;99.90
38090;DHT22;23904;52.322;10.232;2023-11-21T01:22:51;8.20;99.90
38090;DHT22;23904;52.322;10.232;2023-11-21T01:25:17;8.20;99.90
38090;DHT22;23904;52.322;10.232;2023-11-21T01:27:43;8.20;99.90
38090;DHT22;23904;52.322;10.232;2023-11-21T01:30:09;8.20;99.90
38090;DHT22;23904;52.322;10.232;2023-11-21T01:32:38;8.20;99.90
38090;DHT22;23904;52.322;10.232;2023-11-21T01:35:05;8.20;99.90
38090;DHT22;23904;52.322;10.232;2023-11-21T01:37:32;8.20;99.90
38090;DHT22;23904;52.322;10.232;2023-11-21T01:39:59;8.20;99.90
38090;DHT22;23904;52.322;10.232;2023-11-21T01:42:26;8.20;99.90
38090;DHT22;23904;52.322;10.232;2023-11-21T01:44:52;8.10;99.90
38090;DHT22;23904;52.322;10.232;2023-11-21T01:47:19;8.20;99.90
38090;DHT22;23904;52.322;10.232;2023-11-21T01:49:46;8.20;99.90
38090;DHT22;23904;52.322;10.232;2023-11-21T01:52:13;8.20;99.90
38090;DHT22;23904;52.322;10.232;2023-11-21T01:54:39;8.10;99.90
38090;DHT22;23904;52.322;10.232;2023-11-21T01:57:06;8.10;99.90
38090;DHT22;23904;52.322;10.232;2023-11-21T01:59:35;8.10;99.90
38090;DHT22;23904;52.322;10.232;2023-11-21T02:02:06;8.20;99.90
38090;DHT22;23904;52.322;10.232;2023-11-21T02:04:36;8.20;99.90
38090;DHT22;23904;52.322;10.232;2023-11-21T02:07:02;8.20;99.90
38090;DHT22;23904;52.322;10.232;2023-11-21T02:09:31;8.20;99.90
38090;DHT22;23904;52.322;10.232;2023-11-21T02:12:00;8.30;99.90
38090;DHT22;23904;52.322;10.232;2023-11-21T02:14:26;8.20;99.90
38090;DHT22;23904;52.322;10.232;2023-11-21T02:16:54;8.20;99.90
38090;DHT22;23904;52.322;10.232;2023-11-21T02:19:21;8.20;99.90
38090;DHT22;23904;52.322;10.232;2023-11-21T02:21:56;8.20;99.90
38090;DHT22;23904;52.322;10.232;2023-11-21T02:24:26;8.20;99.90
38090;DHT22;23904;52.322;10.232;2023-11-21T02:26:52;8.20;99.90
38090;DHT22;23904;52.322;10.232;2023-11-21T02:29:21;8.10;99.90
38090;DHT22;23904;52.322;10.232;2023-11-21T02:31:54;8.10;99.90
38090;DHT22;23904;52.322;10.232;2023-11-21T02:34:21;8.20;99.90
38090;DHT22;23904;52.322;10.232;2023-11-21T02:36:48;8.20;99.90
38090;DHT22;23904;52.322;10.232;2023-11-21T02:39:15;8.20;99.90
38090;DHT22;23904;52.322;10.232;2023-11-21T02:41:42;8.10;99.90
38090;DHT22;23904;52.322;10.232;2023-11-21T02:44:08;8.10;99.90
38090;DHT22;23904;52.322;10.232;2023-11-21T02:46:35;8.10;99.90
38090;DHT22;23904;52.322;10.232;2023-11-21T02:49:02;8.10;99.90
38090;DHT22;23904;52.322;10.232;2023-11-21T02:51:29;8.10;99.90
38090;DHT22;23904;52.322;10.232;2023-11-21T02:53:56;8.10;99.90
38090;DHT22;23904;52.322;10.232;2023-11-21T02:56:26;8.10;99.90
38090;DHT22;23904;52.322;10.232;2023-11-21T02:58:52;8.20;99.90
38090;DHT22;23904;52.322;10.232;2023-11-21T03:01:20;8.20;99.90
38090;DHT22;23904;52.322;10.232;2023-11-21T03:03:46;8.20;99.90
38090;DHT22;23904;52.322;10.232;2023-11-21T03:06:13;8.10;99.90
38090;DHT22;23904;52.322;10.232;2023-11-21T03:08:38;8.20;99.90
38090;DHT22;23904;52.322;10.232;2023-11-21T03:11:04;8.10;99.90
38090;DHT22;23904;52.322;10.232;2023-11-21T03:13:30;8.20;99.90
38090;DHT22;23904;52.322;10.232;2023-11-21T03:15:55;8.20;99.90
38090;DHT22;23904;52.322;10.232;2023-11-21T03:18:21;8.20;99.90
38090;DHT22;23904;52.322;10.232;2023-11-21T03:20:52;8.10;99.90
38090;DHT22;23904;52.322;10.232;2023-11-21T03:23:18;8.10;99.90
38090;DHT22;23904;52.322;10.232;2023-11-21T03:25:44;8.10;99.90
38090;DHT22;23904;52.322;10.232;2023-11-21T03:28:10;8.10;99.90
38090;DHT22;23904;52.322;10.232;2023-11-21T03:30:35;8.10;99.90
38090;DHT22;23904;52.322;10.232;2023-11-21T03:33:01;8.10;99.90
38090;DHT22;23904;52.322;10.232;2023-11-21T03:35:27;8.10;99.90
38090;DHT22;23904;52.322;10.232;2023-11-21T03:37:53;8.20;99.90
38090;DHT22;23904;52.322;10.232;2023-11-21T03:40:19;8.10;99.90
38090;DHT22;23904;52.322;10.232;2023-11-21T03:42:46;8.10;99.90
38090;DHT22;23904;52.322;10.232;2023-11-21T03:45:12;8.20;99.90
38090;DHT22;23904;52.322;10.232;2023-11-21T03:47:42;8.20;99.90
38090;DHT22;23904;52.322;10.232;2023-11-21T03:50:08;8.20;99.90
38090;DHT22;23904;52.322;10.232;2023-11-21T03:52:34;8.20;99.90
38090;DHT22;23904;52.322;10.232;2023-11-21T03:55:01;8.20;99.90
38090;DHT22;23904;52.322;10.232;2023-11-21T03:57:27;8.20;99.90
38090;DHT22;23904;52.322;10.232;2023-11-21T03:59:53;8.20;99.90
38090;DHT22;23904;52.322;10.232;2023-11-21T04:02:19;8.20;99.90
38090;DHT22;23904;52.322;10.232;2023-11-21T04:04:45;8.20;99.90
38090;DHT22;23904;52.322;10.232;2023-11-21T04:07:11;8.20;99.90
38090;DHT22;23904;52.322;10.232;2023-11-21T04:09:39;8.20;99.90
38090;DHT22;23904;52.322;10.232;2023-11-21T04:12:05;8.20;99.90
38090;DHT22;23904;52.322;10.232;2023-11-21T04:14:32;8.20;99.90
38090;DHT22;23904;52.322;10.232;2023-11-21T04:16:57;8.20;99.90
38090;DHT22;23904;52.322;10.232;2023-11-21T04:19:23;8.30;99.90
38090;DHT22;23904;52.322;10.232;2023-11-21T04:21:49;8.30;99.90
38090;DHT22;23904;52.322;10.232;2023-11-21T04:24:15;8.30;99.90
38090;DHT22;23904;52.322;10.232;2023-11-21T04:26:40;8.30;99.90
38090;DHT22;23904;52.322;10.232;2023-11-21T04:29:06;8.20;99.90
38090;DHT22;23904;52.322;10.232;2023-11-21T04:31:32;8.20;99.90
38090;DHT22;23904;52.322;10.232;2023-11-21T04:33:57;8.20;99.90
38090;DHT22;23904;52.322;10.232;2023-11-21T04:36:23;8.30;99.90
38090;DHT22;23904;52.322;10.232;2023-11-21T04:38:48;8.20;99.90
38090;DHT22;23904;52.322;10.232;2023-11-21T04:41:14;8.20;99.90
38090;DHT22;23904;52.322;10.232;2023-11-21T04:43:39;8.20;99.90
38090;DHT22;23904;52.322;10.232;2023-11-21T04:46:05;8.20;99.90
38090;DHT22;23904;52.322;10.232;2023-11-21T04:48:32;8.20;99.90
38090;DHT22;23904;52.322;10.232;2023-11-21T04:50:58;8.20;99.90
38090;DHT22;23904;52.322;10.232;2023-11-21T04:53:23;8.20;99.90
38090;DHT22;23904;52.322;10.232;2023-11-21T04:55:49;8.20;99.90
38090;DHT22;23904;52.322;10.232;2023-11-21T04:58:15;8.20;99.90
38090;DHT22;23904;52.322;10.232;2023-11-21T05:00:40;8.30;99.90
38090;DHT22;23904;52.322;10.232;2023-11-21T05:03:06;8.20;99.90
38090;DHT22;23904;52.322;10.232;2023-11-21T05:05:32;8.30;99.90
38090;DHT22;23904;52.322;10.232;2023-11-21T05:07:59;8.30;99.90
38090;DHT22;23904;52.322;10.232;2023-11-21T05:10:25;8.30;99.90
38090;DHT22;23904;52.322;10.232;2023-11-21T05:12:50;8.30;99.90
38090;DHT22;23904;52.322;10.232;2023-11-21T05:15:17;8.30;99.90
38090;DHT22;23904;52.322;10.232;2023-11-21T05:17:43;8.20;99.90
38090;DHT22;23904;52.322;10.232;2023-11-21T05:20:13;8.30;99.90
38090;DHT22;23904;52.322;10.232;2023-11-21T05:22:43;8.30;99.90
38090;DHT22;23904;52.322;10.232;2023-11-21T05:25:09;8.30;99.90
38090;DHT22;23904;52.322;10.232;2023-11-21T05:27:35;8.30;99.90
38090;DHT22;23904;52.322;10.232;2023-11-21T05:30:02;8.30;99.90
38090;DHT22;23904;52.322;10.232;2023-11-21T05:32:32;8.30;99.90
38090;DHT22;23904;52.322;10.232;2023-11-21T05:34:59;8.30;99.90
38090;DHT22;23904;52.322;10.232;2023-11-21T05:37:24;8.30;99.90
38090;DHT22;23904;52.322;10.232;2023-11-21T05:39:52;8.40;99.90
38090;DHT22;23904;52.322;10.232;2023-11-21T05:42:18;8.40;99.90
38090;DHT22;23904;52.322;10.232;2023-11-21T05:44:44;8.40;99.90
38090;DHT22;23904;52.322;10.232;2023-11-21T05:47:10;8.40;99.90
38090;DHT22;23904;52.322;10.232;2023-11-21T05:49:36;8.40;99.90
38090;DHT22;23904;52.322;10.232;2023-11-21T05:52:02;8.40;99.90
38090;DHT22;23904;52.322;10.232;2023-11-21T05:54:28;8.40;99.90
38090;DHT22;23904;52.322;10.232;2023-11-21T05:56:54;8.40;99.90
38090;DHT22;23904;52.322;10.232;2023-11-21T05:59:20;8.40;99.90
38090;DHT22;23904;52.322;10.232;2023-11-21T06:01:45;8.40;99.90
38090;DHT22;23904;52.322;10.232;2023-11-21T06:04:11;8.40;99.90
38090;DHT22;23904;52.322;10.232;2023-11-21T06:06:38;8.40;99.90
38090;DHT22;23904;52.322;10.232;2023-11-21T06:09:04;8.40;99.90
38090;DHT22;23904;52.322;10.232;2023-11-21T06:11:31;8.40;99.90
38090;DHT22;23904;52.322;10.232;2023-11-21T06:13:57;8.40;99.90
38090;DHT22;23904;52.322;10.232;2023-11-21T06:16:23;8.40;99.90
38090;DHT22;23904;52.322;10.232;2023-11-21T06:18:49;8.40;99.90
38090;DHT22;23904;52.322;10.232;2023-11-21T06:21:15;8.50;99.90
38090;DHT22;23904;52.322;10.232;2023-11-21T06:23:42;8.40;99.90
38090;DHT22;23904;52.322;10.232;2023-11-21T06:26:08;8.40;99.90
38090;DHT22;23904;52.322;10.232;2023-11-21T06:28:34;8.30;99.90
38090;DHT22;23904;52.322;10.232;2023-11-21T06:31:01;8.20;99.90
38090;DHT22;23904;52.322;10.232;2023-11-21T06:33:31;8.20;99.90
38090;DHT22;23904;52.322;10.232;2023-11-21T06:35:57;8.10;99.90
38090;DHT22;23904;52.322;10.232;2023-11-21T06:38:22;8.10;99.90
38090;DHT22;23904;52.322;10.232;2023-11-21T06:40:48;8.00;99.90
38090;DHT22;23904;52.322;10.232;2023-11-21T06:43:14;8.00;99.90
38090;DHT22;23904;52.322;10.232;2023-11-21T06:45:40;8.00;99.90
38090;DHT22;23904;52.322;10.232;2023-11-21T06:48:06;8.10;99.90
38090;DHT22;23904;52.322;10.232;2023-11-21T06:50:31;8.00;99.90
38090;DHT22;23904;52.322;10.232;2023-11-21T06:52:57;8.00;99.90
38090;DHT22;23904;52.322;10.232;2023-11-21T06:55:23;8.00;99.90
38090;DHT22;23904;52.322;10.232;2023-11-21T06:57:48;8.00;99.90
38090;DHT22;23904;52.322;10.232;2023-11-21T07:00:16;7.90;99.90
38090;DHT22;23904;52.322;10.232;2023-11-21T07:02:43;7.90;99.90
38090;DHT22;23904;52.322;10.232;2023-11-21T07:05:09;7.90;99.90
38090;DHT22;23904;52.322;10.232;2023-11-21T07:07:35;7.90;99.90
38090;DHT22;23904;52.322;10.232;2023-11-21T07:10:02;7.80;99.90
38090;DHT22;23904;52.322;10.232;2023-11-21T07:12:30;7.80;99.90
38090;DHT22;23904;52.322;10.232;2023-11-21T07:14:56;7.70;99.90
38090;DHT22;23904;52.322;10.232;2023-11-21T07:17:23;7.70;99.90
38090;DHT22;23904;52.322;10.232;2023-11-21T07:19:49;7.70;99.90
38090;DHT22;23904;52.322;10.232;2023-11-21T07:22:15;7.70;99.90
38090;DHT22;23904;52.322;10.232;2023-11-21T07:24:51;7.70;99.90
38090;DHT22;23904;52.322;10.232;2023-11-21T07:27:17;7.60;99.90
38090;DHT22;23904;52.322;10.232;2023-11-21T07:29:43;7.60;99.90
38090;DHT22;23904;52.322;10.232;2023-11-21T07:32:08;7.60;99.90
38090;DHT22;23904;52.322;10.232;2023-11-21T07:34:38;7.60;99.90
38090;DHT22;23904;52.322;10.232;2023-11-21T07:37:03;7.60;99.90
38090;DHT22;23904;52.322;10.232;2023-11-21T07:39:29;7.50;99.90
38090;DHT22;23904;52.322;10.232;2023-11-21T07:41:55;7.50;99.90
38090;DHT22;23904;52.322;10.232;2023-11-21T07:44:21;7.50;99.90
38090;DHT22;23904;52.322;10.232;2023-11-21T07:46:48;7.50;99.90
38090;DHT22;23904;52.322;10.232;2023-11-21T07:49:15;7.50;99.90
38090;DHT22;23904;52.322;10.232;2023-11-21T07:51:42;7.50;99.90
38090;DHT22;23904;52.322;10.232;2023-11-21T07:54:09;7.50;99.90
38090;DHT22;23904;52.322;10.232;2023-11-21T07:56:35;7.50;99.90
38090;DHT22;23904;52.322;10.232;2023-11-21T07:59:00;7.50;99.90
38090;DHT22;23904;52.322;10.232;2023-11-21T08:01:26;7.50;99.90
38090;DHT22;23904;52.322;10.232;2023-11-21T08:03:53;7.50;99.90
38090;DHT22;23904;52.322;10.232;2023-11-21T08:06:25;7.50;99.90
38090;DHT22;23904;52.322;10.232;2023-11-21T08:08:51;7.50;99.90
38090;DHT22;23904;52.322;10.232;2023-11-21T08:11:17;7.40;99.90
38090;DHT22;23904;52.322;10.232;2023-11-21T08:13:42;7.40;99.90
38090;DHT22;23904;52.322;10.232;2023-11-21T08:16:08;7.50;99.90
38090;DHT22;23904;52.322;10.232;2023-11-21T08:18:33;7.50;99.90
38090;DHT22;23904;52.322;10.232;2023-11-21T08:20:59;7.40;99.90
38090;DHT22;23904;52.322;10.232;2023-11-21T08:23:25;7.40;99.90
38090;DHT22;23904;52.322;10.232;2023-11-21T08:25:52;7.40;99.90
38090;DHT22;23904;52.322;10.232;2023-11-21T08:28:18;7.40;99.90
38090;DHT22;23904;52.322;10.232;2023-11-21T08:30:44;7.40;99.90
38090;DHT22;23904;52.322;10.232;2023-11-21T08:33:09;7.40;99.90
38090;DHT22;23904;52.322;10.232;2023-11-21T08:35:37;7.40;99.90
38090;DHT22;23904;52.322;10.232;2023-11-21T08:38:03;7.40;99.90
38090;DHT22;23904;52.322;10.232;2023-11-21T08:40:29;7.40;99.90
38090;DHT22;23904;52.322;10.232;2023-11-21T08:42:55;7.40;99.90
38090;DHT22;23904;52.322;10.232;2023-11-21T08:45:22;7.50;99.90
38090;DHT22;23904;52.322;10.232;2023-11-21T08:47:47;7.50;99.90
38090;DHT22;23904;52.322;10.232;2023-11-21T08:50:13;7.50;99.90
38090;DHT22;23904;52.322;10.232;2023-11-21T08:52:40;7.60;99.90
38090;DHT22;23904;52.322;10.232;2023-11-21T08:55:06;7.60;99.90
38090;DHT22;23904;52.322;10.232;2023-11-21T08:57:38;7.60;99.90
38090;DHT22;23904;52.322;10.232;2023-11-21T09:00:06;7.70;99.90
38090;DHT22;23904;52.322;10.232;2023-11-21T09:02:40;7.70;99.90
38090;DHT22;23904;52.322;10.232;2023-11-21T09:05:10;7.70;99.90
38090;DHT22;23904;52.322;10.232;2023-11-21T09:07:36;7.70;99.90
38090;DHT22;23904;52.322;10.232;2023-11-21T09:10:05;7.70;99.90
38090;DHT22;23904;52.322;10.232;2023-11-21T09:12:35;7.70;99.90
38090;DHT22;23904;52.322;10.232;2023-11-21T09:15:03;7.70;99.90
38090;DHT22;23904;52.322;10.232;2023-11-21T09:17:33;7.80;99.90
38090;DHT22;23904;52.322;10.232;2023-11-21T09:20:03;7.80;99.90
38090;DHT22;23904;52.322;10.232;2023-11-21T09:22:31;7.80;99.90
38090;DHT22;23904;52.322;10.232;2023-11-21T09:24:57;8.00;99.90
38090;DHT22;23904;52.322;10.232;2023-11-21T09:27:23;8.10;99.90
38090;DHT22;23904;52.322;10.232;2023-11-21T09:29:49;8.10;99.90
38090;DHT22;23904;52.322;10.232;2023-11-21T09:32:15;8.30;99.90
38090;DHT22;23904;52.322;10.232;2023-11-21T09:34:41;8.20;99.90
38090;DHT22;23904;52.322;10.232;2023-11-21T09:37:07;8.10;99.90
38090;DHT22;23904;52.322;10.232;2023-11-21T09:39:33;8.10;99.90
38090;DHT22;23904;52.322;10.232;2023-11-21T09:42:10;8.10;99.90
38090;DHT22;23904;52.322;10.232;2023-11-21T09:47:22;8.00;99.90
38090;DHT22;23904;52.322;10.232;2023-11-21T09:49:48;8.10;99.90
38090;DHT22;23904;52.322;10.232;2023-11-21T09:52:27;8.10;99.90
38090;DHT22;23904;52.322;10.232;2023-11-21T09:54:54;8.20;99.90
38090;DHT22;23904;52.322;10.232;2023-11-21T09:57:23;8.20;99.90
38090;DHT22;23904;52.322;10.232;2023-11-21T09:59:53;8.20;99.90
38090;DHT22;23904;52.322;10.232;2023-11-21T10:02:28;8.30;99.90
38090;DHT22;23904;52.322;10.232;2023-11-21T10:04:55;8.40;99.90
38090;DHT22;23904;52.322;10.232;2023-11-21T10:07:22;8.50;99.90
38090;DHT22;23904;52.322;10.232;2023-11-21T10:09:48;8.30;99.90
38090;DHT22;23904;52.322;10.232;2023-11-21T10:12:16;8.40;99.90
38090;DHT22;23904;52.322;10.232;2023-11-21T10:14:42;8.40;99.90
38090;DHT22;23904;52.322;10.232;2023-11-21T10:17:10;8.50;99.90
38090;DHT22;23904;52.322;10.232;2023-11-21T10:19:38;8.40;99.90
38090;DHT22;23904;52.322;10.232;2023-11-21T10:22:05;8.30;99.90
38090;DHT22;23904;52.322;10.232;2023-11-21T10:24:32;8.30;99.90
38090;DHT22;23904;52.322;10.232;2023-11-21T10:26:58;8.30;99.90
38090;DHT22;23904;52.322;10.232;2023-11-21T10:29:25;8.20;99.90
38090;DHT22;23904;52.322;10.232;2023-11-21T10:31:54;8.20;99.90
38090;DHT22;23904;52.322;10.232;2023-11-21T10:34:20;8.00;99.90
38090;DHT22;23904;52.322;10.232;2023-11-21T10:36:46;8.10;99.90
38090;DHT22;23904;52.322;10.232;2023-11-21T10:39:21;8.00;99.90
38090;DHT22;23904;52.322;10.232;2023-11-21T10:41:49;8.20;99.90
38090;DHT22;23904;52.322;10.232;2023-11-21T10:44:17;8.30;99.90
38090;DHT22;23904;52.322;10.232;2023-11-21T10:46:48;8.30;99.90
38090;DHT22;23904;52.322;10.232;2023-11-21T10:49:17;8.30;99.90
38090;DHT22;23904;52.322;10.232;2023-11-21T10:51:44;8.40;99.90
38090;DHT22;23904;52.322;10.232;2023-11-21T10:54:09;8.40;99.90
38090;DHT22;23904;52.322;10.232;2023-11-21T10:56:36;8.50;99.90
38090;DHT22;23904;52.322;10.232;2023-11-21T10:59:09;8.50;99.90
38090;DHT22;23904;52.322;10.232;2023-11-21T11:01:41;8.40;99.90
38090;DHT22;23904;52.322;10.232;2023-11-21T11:04:09;8.60;99.90
38090;DHT22;23904;52.322;10.232;2023-11-21T11:06:41;8.60;99.90
38090;DHT22;23904;52.322;10.232;2023-11-21T11:09:13;8.60;99.90
38090;DHT22;23904;52.322;10.232;2023-11-21T11:11:40;8.70;99.90
38090;DHT22;23904;52.322;10.232;2023-11-21T11:14:12;8.80;99.90
38090;DHT22;23904;52.322;10.232;2023-11-21T11:16:40;8.80;99.90
38090;DHT22;23904;52.322;10.232;2023-11-21T11:19:07;8.70;99.90
38090;DHT22;23904;52.322;10.232;2023-11-21T11:24:51;8.90;99.90
38090;DHT22;23904;52.322;10.232;2023-11-21T11:28:01;8.70;99.90
38090;DHT22;23904;52.322;10.232;2023-11-21T11:34:04;8.40;99.90
38090;DHT22;23904;52.322;10.232;2023-11-21T11:36:47;8.30;99.90
38090;DHT22;23904;52.322;10.232;2023-11-21T11:39:37;8.30;99.90
38090;DHT22;23904;52.322;10.232;2023-11-21T11:42:08;8.30;99.90
38090;DHT22;23904;52.322;10.232;2023-11-21T11:47:32;8.20;99.90
38090;DHT22;23904;52.322;10.232;2023-11-21T11:50:08;8.40;99.90
38090;DHT22;23904;52.322;10.232;2023-11-21T11:52:49;8.40;99.90
38090;DHT22;23904;52.322;10.232;2023-11-21T11:55:18;8.40;99.90
38090;DHT22;23904;52.322;10.232;2023-11-21T11:57:55;8.50;99.90
38090;DHT22;23904;52.322;10.232;2023-11-21T12:02:53;8.60;99.90
38090;DHT22;23904;52.322;10.232;2023-11-21T12:05:22;8.70;99.90
38090;DHT22;23904;52.322;10.232;2023-11-21T12:07:53;8.70;99.90
38090;DHT22;23904;52.322;10.232;2023-11-21T12:10:21;8.60;99.90
38090;DHT22;23904;52.322;10.232;2023-11-21T12:12:52;8.70;99.90
38090;DHT22;23904;52.322;10.232;2023-11-21T12:15:19;8.70;99.90
38090;DHT22;23904;52.322;10.232;2023-11-21T12:17:47;8.60;99.90
38090;DHT22;23904;52.322;10.232;2023-11-21T12:20:15;8.70;99.90
38090;DHT22;23904;52.322;10.232;2023-11-21T12:22:48;8.60;99.90
38090;DHT22;23904;52.322;10.232;2023-11-21T12:25:17;8.60;99.90
38090;DHT22;23904;52.322;10.232;2023-11-21T12:27:52;8.60;99.90
38090;DHT22;23904;52.322;10.232;2023-11-21T12:30:23;8.60;99.90
38090;DHT22;23904;52.322;10.232;2023-11-21T12:32:55;8.50;99.90
38090;DHT22;23904;52.322;10.232;2023-11-21T12:35:23;8.50;99.90
38090;DHT22;23904;52.322;10.232;2023-11-21T12:37:51;8.60;99.90
38090;DHT22;23904;52.322;10.232;2023-11-21T12:40:18;8.60;99.90
38090;DHT22;23904;52.322;10.232;2023-11-21T12:42:48;8.40;99.90
38090;DHT22;23904;52.322;10.232;2023-11-21T12:47:55;8.50;99.90
38090;DHT22;23904;52.322;10.232;2023-11-21T12:50:27;8.40;99.90
38090;DHT22;23904;52.322;10.232;2023-11-21T12:53:01;8.40;99.90
38090;DHT22;23904;52.322;10.232;2023-11-21T12:55:32;8.30;99.90
38090;DHT22;23904;52.322;10.232;2023-11-21T12:58:01;8.30;99.90
38090;DHT22;23904;52.322;10.232;2023-11-21T13:00:44;8.20;99.90
38090;DHT22;23904;52.322;10.232;2023-11-21T13:03:12;8.20;99.90
38090;DHT22;23904;52.322;10.232;2023-11-21T13:05:43;8.20;99.90
38090;DHT22;23904;52.322;10.232;2023-11-21T13:08:11;8.10;99.90
38090;DHT22;23904;52.322;10.232;2023-11-21T13:10:40;8.20;99.90
38090;DHT22;23904;52.322;10.232;2023-11-21T13:13:10;8.20;99.90
38090;DHT22;23904;52.322;10.232;2023-11-21T13:15:47;8.30;99.90
38090;DHT22;23904;52.322;10.232;2023-11-21T13:18:14;8.30;99.90
38090;DHT22;23904;52.322;10.232;2023-11-21T13:20:41;8.10;99.90
38090;DHT22;23904;52.322;10.232;2023-11-21T13:23:09;8.00;99.90
38090;DHT22;23904;52.322;10.232;2023-11-21T13:25:40;8.00;99.90
38090;DHT22;23904;52.322;10.232;2023-11-21T13:28:11;7.90;99.90
38090;DHT22;23904;52.322;10.232;2023-11-21T13:30:38;7.90;99.90
38090;DHT22;23904;52.322;10.232;2023-11-21T13:33:06;7.80;99.90
38090;DHT22;23904;52.322;10.232;2023-11-21T13:35:35;7.70;99.90
38090;DHT22;23904;52.322;10.232;2023-11-21T13:38:09;7.70;99.90
38090;DHT22;23904;52.322;10.232;2023-11-21T13:40:39;7.70;99.90
38090;DHT22;23904;52.322;10.232;2023-11-21T13:43:11;7.80;99.90
38090;DHT22;23904;52.322;10.232;2023-11-21T13:45:39;7.80;99.90
38090;DHT22;23904;52.322;10.232;2023-11-21T13:48:06;7.80;99.90
38090;DHT22;23904;52.322;10.232;2023-11-21T13:50:39;7.80;99.90
38090;DHT22;23904;52.322;10.232;2023-11-21T13:53:11;7.80;99.90
38090;DHT22;23904;52.322;10.232;2023-11-21T13:55:53;7.80;99.90
38090;DHT22;23904;52.322;10.232;2023-11-21T13:58:20;7.90;99.90
38090;DHT22;23904;52.322;10.232;2023-11-21T14:00:57;7.80;99.90
38090;DHT22;23904;52.322;10.232;2023-11-21T14:03:24;7.80;99.90
38090;DHT22;23904;52.322;10.232;2023-11-21T14:05:58;7.80;99.90
38090;DHT22;23904;52.322;10.232;2023-11-21T14:08:26;7.80;99.90
38090;DHT22;23904;52.322;10.232;2023-11-21T14:10:58;7.80;99.90
38090;DHT22;23904;52.322;10.232;2023-11-21T14:13:26;7.80;99.90
38090;DHT22;23904;52.322;10.232;2023-11-21T14:15:52;7.70;99.90
38090;DHT22;23904;52.322;10.232;2023-11-21T14:18:26;7.70;99.90
38090;DHT22;23904;52.322;10.232;2023-11-21T14:21:07;7.70;99.90
38090;DHT22;23904;52.322;10.232;2023-11-21T14:23:35;7.70;99.90
38090;DHT22;23904;52.322;10.232;2023-11-21T14:26:02;7.70;99.90
38090;DHT22;23904;52.322;10.232;2023-11-21T14:28:28;7.70;99.90
38090;DHT22;23904;52.322;10.232;2023-11-21T14:30:54;7.70;99.90
38090;DHT22;23904;52.322;10.232;2023-11-21T14:33:19;7.60;99.90
38090;DHT22;23904;52.322;10.232;2023-11-21T14:35:45;7.60;99.90
38090;DHT22;23904;52.322;10.232;2023-11-21T14:38:12;7.50;99.90
38090;DHT22;23904;52.322;10.232;2023-11-21T14:40:39;7.50;99.90
38090;DHT22;23904;52.322;10.232;2023-11-21T14:43:04;7.50;99.90
38090;DHT22;23904;52.322;10.232;2023-11-21T14:45:34;7.40;99.90
38090;DHT22;23904;52.322;10.232;2023-11-21T14:48:00;7.40;99.90
38090;DHT22;23904;52.322;10.232;2023-11-21T14:50:35;7.50;99.90
38090;DHT22;23904;52.322;10.232;2023-11-21T14:53:13;7.40;99.90
38090;DHT22;23904;52.322;10.232;2023-11-21T14:55:39;7.30;99.90
38090;DHT22;23904;52.322;10.232;2023-11-21T14:58:22;7.30;99.90
38090;DHT22;23904;52.322;10.232;2023-11-21T15:00:57;7.30;99.90
38090;DHT22;23904;52.322;10.232;2023-11-21T15:03:24;7.30;99.90
38090;DHT22;23904;52.322;10.232;2023-11-21T15:06:03;7.20;99.90
38090;DHT22;23904;52.322;10.232;2023-11-21T15:08:56;7.10;99.90
38090;DHT22;23904;52.322;10.232;2023-11-21T15:11:32;7.10;99.90
38090;DHT22;23904;52.322;10.232;2023-11-21T15:13:58;7.10;99.90
38090;DHT22;23904;52.322;10.232;2023-11-21T15:16:24;7.10;99.90
38090;DHT22;23904;52.322;10.232;2023-11-21T15:18:51;7.10;99.90
38090;DHT22;23904;52.322;10.232;2023-11-21T15:21:19;7.00;99.90
38090;DHT22;23904;52.322;10.232;2023-11-21T15:23:47;6.90;99.90
38090;DHT22;23904;52.322;10.232;2023-11-21T15:26:13;6.90;99.90
38090;DHT22;23904;52.322;10.232;2023-11-21T15:28:39;6.80;99.90
38090;DHT22;23904;52.322;10.232;2023-11-21T15:31:04;6.80;99.90
38090;DHT22;23904;52.322;10.232;2023-11-21T15:33:30;6.80;99.90
38090;DHT22;23904;52.322;10.232;2023-11-21T15:35:56;6.80;99.90
38090;DHT22;23904;52.322;10.232;2023-11-21T15:38:23;6.80;99.90
38090;DHT22;23904;52.322;10.232;2023-11-21T15:40:49;6.80;99.90
38090;DHT22;23904;52.322;10.232;2023-11-21T15:43:15;6.80;99.90
38090;DHT22;23904;52.322;10.232;2023-11-21T15:45:41;6.80;99.90
38090;DHT22;23904;52.322;10.232;2023-11-21T15:48:07;6.70;99.90
38090;DHT22;23904;52.322;10.232;2023-11-21T15:50:34;6.80;99.90